Time;durP1;ratioP1;P1;durP2;ratioP2;P2;SDS_P1;SDS_P2;PMS_P1;PMS_P2;Temp;Humidity;BMP_temperature;BMP_pressure;BME280_temperature;BME280_humidity;BME280_pressure;Samples;Min_cycle;Max_cycle;Signal;HPM_P1;HPM_P2
2021/05/13 00:01:22;;;;;;;13.40;12.20;;;;;;;15.72;78.38;97612.53;124830;1101;64275;-82
2021/05/13 00:03:54;;;;;;;13.05;11.85;;;;;;;15.71;78.37;97613.52;124849;1096;64327;-82
2021/05/13 00:06:22;;;;;;;12.60;11.30;;;;;;;15.65;78.39;97609.63;124832;1101;64473;-82
2021/05/13 00:08:57;;;;;;;12.57;11.43;;;;;;;15.64;78.63;97601.73;124880;1101;64473;-82
2021/05/13 00:11:32;;;;;;;13.87;12.77;;;;;;;15.61;78.52;97602.08;124836;1096;64419;-82
2021/05/13 00:14:02;;;;;;;14.03;12.63;;;;;;;15.58;78.80;97601.39;124836;1101;64249;-82
2021/05/13 00:16:32;;;;;;;;;;;;;;;15.54;79.05;97591.19;124887;1101;64253;-82
2021/05/13 00:19:04;;;;;;;16.77;15.20;;;;;;;15.48;78.88;97587.33;124823;1101;64409;-82
2021/05/13 00:21:31;;;;;;;16.07;14.47;;;;;;;15.44;79.06;97593.20;124638;1102;64441;-82
2021/05/13 00:23:59;;;;;;;14.43;13.13;;;;;;;15.39;79.22;97588.32;124806;1096;64330;-81
2021/05/13 00:26:37;;;;;;;14.63;13.23;;;;;;;15.34;79.06;97599.55;124854;1101;64281;-81
2021/05/13 00:29:06;;;;;;;14.03;12.83;;;;;;;15.31;79.21;97599.06;124858;1096;64339;-82
2021/05/13 00:31:34;;;;;;;15.43;13.93;;;;;;;15.24;79.34;97590.81;124944;1101;64362;-82
2021/05/13 00:34:02;;;;;;;14.30;13.00;;;;;;;15.22;79.40;97598.22;124609;1097;64336;-81
2021/05/13 00:36:31;;;;;;;15.83;14.33;;;;;;;15.22;79.49;97594.67;124871;1101;64329;-81
2021/05/13 00:38:59;;;;;;;16.70;14.63;;;;;;;15.24;79.53;97590.81;124839;1096;64342;-81
2021/05/13 00:41:27;;;;;;;13.73;12.40;;;;;;;15.28;79.27;97599.39;124858;1096;64278;-82
2021/05/13 00:43:54;;;;;;;15.70;14.10;;;;;;;15.30;79.59;97602.77;124602;1097;64336;-81
2021/05/13 00:46:22;;;;;;;16.57;15.13;;;;;;;15.30;79.49;97600.91;124680;1097;64339;-82
2021/05/13 00:48:52;;;;;;;16.30;14.70;;;;;;;15.30;79.83;97592.02;124843;1096;64371;-82
2021/05/13 00:51:19;;;;;;;14.73;13.43;;;;;;;15.30;79.71;97592.02;124802;1101;64336;-82
2021/05/13 00:53:47;;;;;;;15.23;13.83;;;;;;;15.29;79.60;97593.84;124832;1097;64361;-81
2021/05/13 00:56:15;;;;;;;14.70;13.40;;;;;;;15.28;79.60;97589.50;124822;1096;64247;-81
2021/05/13 00:58:46;;;;;;;14.97;13.47;;;;;;;15.32;79.71;97590.85;124824;1101;64489;-83
2021/05/13 01:01:16;;;;;;;14.50;13.00;;;;;;;15.34;79.58;97583.45;124805;1101;64326;-82
2021/05/13 01:03:44;;;;;;;14.17;12.83;;;;;;;15.41;79.53;97580.11;124896;1101;64329;-81
2021/05/13 01:06:14;;;;;;;13.80;12.40;;;;;;;15.42;79.55;97576.41;124601;1102;64336;-82
2021/05/13 01:08:41;;;;;;;13.30;12.20;;;;;;;15.45;79.41;97578.75;124823;1101;64333;-82
2021/05/13 01:11:12;;;;;;;13.93;12.60;;;;;;;15.45;79.59;97571.53;124828;1096;64428;-84
2021/05/13 01:14:15;;;;;;;14.60;13.30;;;;;;;15.47;79.37;97566.84;124777;1097;64817;-83
2021/05/13 01:19:34;;;;;;;14.40;12.73;;;;;;;15.43;79.40;97564.66;124799;1101;64364;-84
2021/05/13 01:22:01;;;;;;;14.83;13.43;;;;;;;15.41;79.29;97562.16;124854;1101;64367;-81
2021/05/13 01:24:29;;;;;;;14.37;13.13;;;;;;;15.44;79.47;97566.34;124922;1101;64335;-81
2021/05/13 01:26:56;;;;;;;13.80;12.53;;;;;;;15.47;79.30;97561.47;124776;1097;64581;-81
2021/05/13 01:29:26;;;;;;;14.43;13.13;;;;;;;15.49;79.31;97562.14;124843;1097;64342;-81
2021/05/13 01:31:55;;;;;;;14.58;13.18;;;;;;;15.51;79.39;97559.30;124856;1096;64348;-80
2021/05/13 01:34:23;;;;;;;13.70;12.37;;;;;;;15.53;79.44;97550.08;124879;1101;64508;-81
2021/05/13 01:36:52;;;;;;;14.03;12.77;;;;;;;15.54;79.15;97543.69;124974;1101;64444;-81
2021/05/13 01:39:20;;;;;;;13.67;12.47;;;;;;;15.56;79.17;97543.49;124707;1102;64339;-81
2021/05/13 01:41:47;;;;;;;15.13;13.67;;;;;;;15.56;79.25;97540.81;124748;1102;64464;-81
2021/05/13 01:44:14;;;;;;;14.97;13.47;;;;;;;15.55;79.22;97531.09;124784;1097;64329;-82
2021/05/13 01:46:42;;;;;;;12.77;11.63;;;;;;;15.53;79.15;97531.28;124683;1096;64345;-82
2021/05/13 01:49:21;;;;;;;13.67;12.47;;;;;;;15.50;79.21;97520.02;124933;1101;64837;-82
2021/05/13 01:51:49;;;;;;;13.67;12.57;;;;;;;15.47;79.22;97506.94;124918;1097;64250;-81
2021/05/13 01:54:17;;;;;;;14.20;12.90;;;;;;;15.45;79.01;97508.95;124974;1097;64267;-81
2021/05/13 01:56:45;;;;;;;15.23;13.63;;;;;;;15.43;79.04;97514.51;124853;1096;64687;-82
2021/05/13 01:59:13;;;;;;;16.37;14.67;;;;;;;15.45;78.87;97517.00;124975;1097;64336;-82
2021/05/13 02:01:40;;;;;;;16.73;15.23;;;;;;;15.44;78.69;97513.48;124898;1101;64336;-82
2021/05/13 02:04:08;;;;;;;22.70;19.60;;;;;;;15.44;78.78;97505.43;124868;1097;64288;-82
2021/05/13 02:06:35;;;;;;;22.33;20.13;;;;;;;15.44;78.77;97501.91;124806;1101;64358;-82
2021/05/13 02:09:02;;;;;;;19.95;18.00;;;;;;;15.42;78.74;97496.70;124817;1101;64425;-82
2021/05/13 02:11:30;;;;;;;19.00;17.07;;;;;;;15.39;78.82;97493.53;124875;1101;64390;-82
2021/05/13 02:13:58;;;;;;;17.80;16.03;;;;;;;15.34;78.75;97494.03;124828;1101;64390;-83
2021/05/13 02:16:25;;;;;;;19.30;16.97;;;;;;;15.31;78.87;97497.06;124892;1101;64316;-82
2021/05/13 02:18:53;;;;;;;20.00;18.00;;;;;;;15.31;79.00;97495.20;124815;1101;64335;-82
2021/05/13 02:21:20;;;;;;;23.77;21.37;;;;;;;15.32;78.93;97493.36;124817;1096;64326;-83
2021/05/13 02:23:48;;;;;;;33.87;30.57;;;;;;;15.30;78.72;97484.66;124913;1101;64488;-83
2021/05/13 02:26:18;;;;;;;34.07;30.63;;;;;;;15.31;78.80;97486.33;124874;1101;64502;-84
2021/05/13 02:28:45;;;;;;;31.43;28.40;;;;;;;15.28;78.93;97487.50;124608;1101;64401;-84
2021/05/13 02:31:14;;;;;;;23.77;21.50;;;;;;;15.27;78.92;97485.84;124821;1097;64285;-82
2021/05/13 02:33:42;;;;;;;23.65;21.20;;;;;;;15.28;78.97;97484.81;124961;1101;64374;-81
2021/05/13 02:36:10;;;;;;;22.77;20.63;;;;;;;15.27;78.74;97472.41;124894;1101;64409;-81
2021/05/13 02:38:38;;;;;;;20.60;18.63;;;;;;;15.28;78.79;97470.56;124883;1097;64464;-81
2021/05/13 02:41:05;;;;;;;21.00;18.90;;;;;;;15.31;78.92;97476.42;124884;1101;64432;-81
2021/05/13 02:43:32;;;;;;;19.87;18.00;;;;;;;15.34;78.90;97467.19;124961;1096;64330;-81
2021/05/13 02:45:59;;;;;;;23.10;20.70;;;;;;;15.39;79.06;97469.38;124921;1101;64428;-81
2021/05/13 02:48:27;;;;;;;26.30;23.80;;;;;;;15.44;79.02;97464.33;124897;1101;64472;-81
2021/05/13 02:50:54;;;;;;;24.97;22.57;;;;;;;15.45;78.76;97465.99;124858;1096;64326;-81
2021/05/13 02:53:21;;;;;;;25.00;22.60;;;;;;;15.44;78.98;97467.84;124796;1101;64377;-81
2021/05/13 02:55:49;;;;;;;29.00;25.17;;;;;;;15.44;78.77;97458.96;124897;1101;64259;-81
2021/05/13 02:58:16;;;;;;;33.17;28.87;;;;;;;15.39;78.71;97470.20;124793;1097;64349;-81
2021/05/13 03:03:16;;;;;;;29.53;26.50;;;;;;;15.34;78.89;97465.34;124822;1101;64582;-81
2021/05/13 03:05:43;;;;;;;30.27;26.33;;;;;;;15.37;78.69;97472.21;124839;1101;64368;-81
2021/05/13 03:08:12;;;;;;;27.93;24.70;;;;;;;15.39;78.75;97469.38;124857;1096;64323;-81
2021/05/13 03:13:10;;;;;;;28.77;25.77;;;;;;;15.44;78.80;97461.64;124801;1096;64315;-81
2021/05/13 03:15:37;;;;;;;28.20;25.20;;;;;;;15.45;78.60;97460.63;124862;1097;64403;-81
2021/05/13 03:18:05;;;;;;;29.93;26.80;;;;;;;15.44;78.85;97462.48;124862;1096;64337;-82
2021/05/13 03:20:38;;;;;;;31.35;28.20;;;;;;;15.45;78.66;97460.63;124910;1101;64316;-81
2021/05/13 03:23:12;;;;;;;36.40;32.60;;;;;;;15.46;78.74;97456.95;124818;1101;64263;-81
2021/05/13 03:25:42;;;;;;;34.20;30.73;;;;;;;15.47;78.71;97463.98;124619;1097;64307;-82
2021/05/13 03:28:09;;;;;;;;;;;;;;;15.46;78.69;97446.21;124746;1102;64332;-82
2021/05/13 03:30:42;;;;;;;32.63;29.07;;;;;;;15.44;78.79;97443.69;124829;1097;64879;-81
2021/05/13 03:33:10;;;;;;;34.45;30.80;;;;;;;15.43;78.63;97435.79;124894;1101;64336;-82
2021/05/13 03:35:38;;;;;;;35.10;31.40;;;;;;;15.44;79.01;97440.17;124866;1097;64301;-82
2021/05/13 03:38:10;;;;;;;33.20;29.90;;;;;;;15.46;78.79;97444.36;124819;1101;64413;-82
2021/05/13 03:40:40;;;;;;;29.50;26.47;;;;;;;15.45;78.76;97439.15;124889;1097;64373;-81
2021/05/13 03:43:08;;;;;;;29.30;26.25;;;;;;;15.45;78.83;97437.30;124923;1101;64326;-81
2021/05/13 03:45:36;;;;;;;30.10;27.07;;;;;;;15.46;78.80;97443.52;124957;1097;64284;-81
2021/05/13 03:48:04;;;;;;;29.27;26.20;;;;;;;15.46;78.92;97438.98;124858;1101;64310;-81
2021/05/13 03:50:37;;;;;;;29.30;26.27;;;;;;;15.50;78.78;97442.16;124802;1101;64427;-82
2021/05/13 03:53:06;;;;;;;30.15;27.05;;;;;;;15.52;78.83;97442.83;124628;1096;64432;-81
2021/05/13 03:55:33;;;;;;;32.13;28.83;;;;;;;15.57;78.81;97438.61;124830;1101;64349;-81
2021/05/13 03:58:02;;;;;;;32.87;29.67;;;;;;;15.63;78.89;97423.66;124937;1097;64326;-81
2021/05/13 04:00:38;;;;;;;33.27;29.87;;;;;;;15.64;78.56;97422.66;124768;1097;64317;-81
2021/05/13 04:03:06;;;;;;;35.23;31.60;;;;;;;15.65;78.61;97423.49;124690;1104;64339;-82
2021/05/13 04:05:33;;;;;;;39.67;34.27;;;;;;;15.66;78.49;97425.16;124656;1104;64333;-81
2021/05/13 04:08:03;;;;;;;34.77;31.10;;;;;;;15.69;78.52;97422.15;124963;1096;64362;-81
2021/05/13 04:10:30;;;;;;;34.50;30.87;;;;;;;15.71;78.34;97417.45;124803;1097;64323;-82
2021/05/13 04:13:01;;;;;;;32.57;29.07;;;;;;;15.71;78.30;97412.91;124905;1096;64384;-82
2021/05/13 04:15:28;;;;;;;32.27;29.07;;;;;;;15.72;78.38;97409.23;124857;1101;64406;-81
2021/05/13 04:17:55;;;;;;;32.13;28.73;;;;;;;15.71;78.47;97412.91;124917;1096;64255;-80
2021/05/13 04:20:23;;;;;;;30.93;27.47;;;;;;;15.73;78.62;97404.69;124833;1101;64352;-83
2021/05/13 04:22:50;;;;;;;29.80;26.60;;;;;;;15.74;78.52;97401.81;124896;1096;64332;-81
2021/05/13 04:25:17;;;;;;;31.13;27.87;;;;;;;15.73;78.28;97396.63;124928;1101;64288;-81
2021/05/13 04:27:46;;;;;;;30.77;27.57;;;;;;;15.74;78.44;97401.81;124941;1096;64332;-80
2021/05/13 04:30:14;;;;;;;29.73;26.73;;;;;;;15.78;78.88;97392.41;124873;1096;64329;-80
2021/05/13 04:32:41;;;;;;;25.47;22.80;;;;;;;15.80;78.49;97393.08;124624;1096;64451;-82
2021/05/13 04:35:09;;;;;;;24.70;22.13;;;;;;;15.83;78.40;97396.43;124880;1096;64330;-82
2021/05/13 04:37:36;;;;;;;25.63;23.03;;;;;;;15.82;78.52;97395.57;124892;1101;64349;-83
2021/05/13 04:40:04;;;;;;;27.33;24.57;;;;;;;15.82;78.43;97392.88;124922;1096;64332;-81
2021/05/13 04:42:31;;;;;;;26.63;24.03;;;;;;;15.84;78.63;97393.55;124578;1096;64390;-82
2021/05/13 04:44:59;;;;;;;25.70;23.00;;;;;;;15.90;78.51;97383.95;124904;1096;64342;-81
2021/05/13 04:47:33;;;;;;;28.17;25.50;;;;;;;15.94;78.23;97382.59;124822;1096;64348;-82
2021/05/13 04:50:01;;;;;;;29.83;26.97;;;;;;;15.94;78.20;97375.37;124898;1101;64326;-81
2021/05/13 04:52:29;;;;;;;28.87;25.97;;;;;;;15.95;78.07;97376.20;124760;1097;64432;-81
2021/05/13 04:54:58;;;;;;;29.07;26.17;;;;;;;15.94;78.33;97377.23;124914;1101;64361;-82
2021/05/13 04:57:26;;;;;;;28.63;25.73;;;;;;;15.97;78.04;97374.18;124976;1101;64265;-82
2021/05/13 04:59:53;;;;;;;27.60;24.90;;;;;;;16.00;78.18;97368.45;124797;1101;64343;-82
2021/05/13 05:02:20;;;;;;;31.13;26.07;;;;;;;16.04;78.15;97377.84;124861;1097;64455;-83
2021/05/13 05:04:48;;;;;;;29.03;25.73;;;;;;;16.08;78.10;97373.77;124843;1096;63390;-82
2021/05/13 05:07:15;;;;;;;29.33;26.23;;;;;;;16.10;78.01;97370.92;124950;1101;64458;-82
2021/05/13 05:09:43;;;;;;;29.13;26.17;;;;;;;16.12;77.79;97368.89;124894;1096;64248;-82
2021/05/13 05:12:12;;;;;;;30.20;26.95;;;;;;;16.13;77.79;97374.08;124795;1094;64370;-83
2021/05/13 05:14:41;;;;;;;30.95;27.68;;;;;;;16.11;77.73;97368.03;124865;1101;64329;-81
2021/05/13 05:17:09;;;;;;;30.50;27.20;;;;;;;16.10;77.69;97369.06;124800;1101;64456;-82
2021/05/13 05:19:36;;;;;;;30.70;27.03;;;;;;;16.10;77.75;97368.23;124856;1097;64443;-81
2021/05/13 05:22:05;;;;;;;30.10;26.90;;;;;;;16.10;77.83;97363.69;124865;1096;64278;-82
2021/05/13 05:24:34;;;;;;;28.70;25.85;;;;;;;16.14;77.82;97354.27;124892;1097;64810;-81
2021/05/13 05:27:01;;;;;;;30.00;26.90;;;;;;;16.21;77.57;97357.06;124897;1101;64323;-82
2021/05/13 05:29:29;;;;;;;31.33;27.97;;;;;;;16.28;77.43;97354.52;124793;1101;64211;-81
2021/05/13 05:31:56;;;;;;;33.07;29.70;;;;;;;16.33;77.49;97346.75;124974;1101;64486;-82
2021/05/13 05:34:23;;;;;;;32.40;29.10;;;;;;;16.38;77.44;97347.88;124913;1097;64329;-82
2021/05/13 05:36:50;;;;;;;33.33;29.73;;;;;;;16.44;77.23;97349.00;124915;1096;64361;-81
2021/05/13 05:39:18;;;;;;;33.23;29.93;;;;;;;16.49;77.26;97361.92;124879;1101;64330;-81
2021/05/13 05:41:45;;;;;;;32.53;29.20;;;;;;;16.49;77.27;97357.37;124811;1101;64330;-82
2021/05/13 05:44:13;;;;;;;33.53;29.90;;;;;;;16.48;76.88;97354.84;124797;1101;64959;-81
2021/05/13 05:46:41;;;;;;;34.87;30.50;;;;;;;16.48;76.97;97346.78;124805;1101;64506;-82
2021/05/13 05:49:08;;;;;;;32.40;29.03;;;;;;;16.56;77.07;97357.47;124837;1096;64358;-82
2021/05/13 05:51:35;;;;;;;32.77;29.53;;;;;;;16.60;76.76;97356.10;124841;1096;64333;-81
2021/05/13 05:54:04;;;;;;;32.63;29.20;;;;;;;16.65;76.69;97361.78;124795;1096;64467;-82
2021/05/13 05:56:31;;;;;;;33.80;30.23;;;;;;;16.70;76.78;97361.24;124931;1101;64502;-82
2021/05/13 05:59:00;;;;;;;32.73;29.33;;;;;;;16.77;76.48;97364.86;124824;1101;64275;-82
2021/05/13 06:01:27;;;;;;;33.23;29.63;;;;;;;16.74;76.33;97363.36;124545;1101;64357;-81
2021/05/13 06:03:54;;;;;;;33.13;29.60;;;;;;;16.68;76.49;97359.55;124836;1097;64332;-81
2021/05/13 06:06:21;;;;;;;34.47;30.40;;;;;;;16.66;76.42;97352.67;124878;1096;64403;-81
2021/05/13 06:08:49;;;;;;;31.97;28.63;;;;;;;16.65;76.40;97359.92;124821;1096;64307;-82
2021/05/13 06:11:16;;;;;;;33.67;30.07;;;;;;;16.64;76.45;97360.95;124859;1101;64346;-81
2021/05/13 06:13:44;;;;;;;32.43;28.93;;;;;;;16.71;76.56;97362.91;125241;1097;64318;-91
2021/05/13 06:16:11;;;;;;;34.07;29.60;;;;;;;16.72;76.31;97357.35;125235;1101;64339;-90
2021/05/13 06:21:52;;;;;;;37.23;32.60;;;;;;;16.64;76.19;97360.09;111026;1090;64478;-93
2021/05/13 06:34:51;;;;;;;35.10;31.30;;;;;;;17.01;75.80;97351.22;122329;1090;64246;-83
2021/05/13 06:37:18;;;;;;;34.90;31.23;;;;;;;17.13;75.73;97359.66;124784;1094;64449;-83
2021/05/13 06:39:46;;;;;;;38.57;33.67;;;;;;;17.24;75.53;97361.89;124823;1096;64488;-83
2021/05/13 06:42:15;;;;;;;40.90;35.13;;;;;;;17.31;75.51;97364.70;124803;1095;64323;-84
2021/05/13 06:44:42;;;;;;;43.93;34.00;;;;;;;17.36;75.11;97359.59;124850;1101;64289;-83
2021/05/13 06:47:12;;;;;;;43.20;35.65;;;;;;;17.44;75.29;97356.80;124869;1101;64486;-84
2021/05/13 06:49:40;;;;;;;41.05;34.28;;;;;;;17.53;74.62;97355.66;124811;1101;64320;-83
2021/05/13 06:52:07;;;;;;;41.50;34.77;;;;;;;17.65;74.39;97357.91;124873;1101;64333;-83
2021/05/13 06:54:35;;;;;;;42.93;35.77;;;;;;;17.78;73.92;97356.20;124819;1101;64424;-83
2021/05/13 06:57:03;;;;;;;40.80;35.23;;;;;;;18.02;73.96;97354.23;124810;1101;64476;-86
2021/05/13 06:59:30;;;;;;;38.27;34.13;;;;;;;18.39;73.34;97350.47;124921;1096;64250;-85
2021/05/13 07:01:58;;;;;;;38.17;33.57;;;;;;;18.68;73.10;97348.66;124976;1096;64320;-83
2021/05/13 07:04:29;;;;;;;37.30;33.35;;;;;;;18.89;72.25;97353.23;124889;1096;64434;-85
2021/05/13 07:06:56;;;;;;;37.13;33.17;;;;;;;19.17;71.62;97345.13;124944;1101;64300;-84
2021/05/13 07:09:24;;;;;;;40.43;34.67;;;;;;;19.53;71.28;97353.01;124810;1101;64335;-85
2021/05/13 07:11:52;;;;;;;36.87;33.03;;;;;;;19.62;70.42;97342.89;124846;1101;64466;-84
2021/05/13 07:14:21;;;;;;;39.13;33.97;;;;;;;19.58;70.33;97341.61;124856;1101;64361;-85
2021/05/13 07:16:48;;;;;;;44.10;34.83;;;;;;;19.52;70.34;97347.82;124871;1096;64249;-84
2021/05/13 07:19:17;;;;;;;40.23;34.80;;;;;;;19.50;70.19;97348.01;124812;1096;64325;-83
2021/05/13 07:21:45;;;;;;;40.13;33.90;;;;;;;19.48;69.95;97349.24;124856;1101;64338;-84
2021/05/13 07:24:13;;;;;;;38.45;34.30;;;;;;;19.45;70.17;97346.94;124809;1101;64489;-84
2021/05/13 07:26:41;;;;;;;38.17;33.43;;;;;;;19.34;69.66;97350.22;124823;1096;64415;-83
2021/05/13 07:29:08;;;;;;;39.83;33.40;;;;;;;19.28;69.69;97341.88;124867;1101;64339;-83
2021/05/13 07:31:36;;;;;;;42.27;36.17;;;;;;;19.26;69.79;97338.52;124862;1096;64251;-83
2021/05/13 07:34:03;;;;;;;45.37;36.87;;;;;;;19.23;69.81;97343.50;124824;1096;64486;-83
2021/05/13 07:36:30;;;;;;;39.40;35.13;;;;;;;19.21;69.62;97337.45;124810;1101;64398;-83
2021/05/13 07:38:58;;;;;;;40.87;35.40;;;;;;;19.19;69.38;97345.74;124822;1096;64339;-82
2021/05/13 07:41:25;;;;;;;38.57;34.40;;;;;;;19.18;69.68;97340.56;124847;1095;64361;-82
2021/05/13 07:43:53;;;;;;;42.83;35.27;;;;;;;19.20;69.50;97336.63;124901;1096;64329;-82
2021/05/13 07:46:20;;;;;;;35.83;32.10;;;;;;;19.34;69.09;97334.00;124770;1095;64499;-83
2021/05/13 07:48:51;;;;;;;33.53;29.50;;;;;;;19.38;69.04;97330.72;124831;1101;64406;-82
2021/05/13 07:51:20;;;;;;;39.53;33.73;;;;;;;19.48;68.59;97320.38;124823;1101;64367;-82
2021/05/13 07:53:47;;;;;;;38.97;33.97;;;;;;;19.69;68.72;97324.84;124601;1101;64325;-82
2021/05/13 07:56:15;;;;;;;39.95;33.30;;;;;;;20.01;68.18;97318.92;124839;1101;64348;-82
2021/05/13 07:58:42;;;;;;;39.67;34.67;;;;;;;20.31;67.45;97314.84;124863;1096;64331;-83
2021/05/13 08:01:10;;;;;;;39.00;34.95;;;;;;;20.44;67.13;97311.33;124858;1096;64406;-83
2021/05/13 08:03:38;;;;;;;39.67;34.80;;;;;;;20.52;67.43;97318.41;124817;1096;64319;-83
2021/05/13 08:06:05;;;;;;;36.97;33.13;;;;;;;20.65;67.07;97310.33;124855;1096;64333;-85
2021/05/13 08:08:33;;;;;;;36.77;32.40;;;;;;;20.78;66.33;97304.08;124859;1096;64342;-83
2021/05/13 08:11:00;;;;;;;39.07;33.67;;;;;;;21.12;65.68;97310.30;124787;1101;64332;-83
2021/05/13 08:13:29;;;;;;;40.17;35.70;;;;;;;21.53;64.57;97307.28;124824;1096;64483;-82
2021/05/13 08:15:56;;;;;;;37.33;33.10;;;;;;;21.92;64.47;97303.57;124866;1101;64450;-83
2021/05/13 08:18:24;;;;;;;35.30;31.57;;;;;;;22.17;63.65;97310.97;124829;1101;64319;-82
2021/05/13 08:20:52;;;;;;;36.00;32.17;;;;;;;22.17;63.20;97308.25;124796;1101;64330;-82
2021/05/13 08:23:19;;;;;;;36.07;32.33;;;;;;;22.12;62.53;97302.65;124814;1101;64460;-82
2021/05/13 08:25:46;;;;;;;37.30;33.30;;;;;;;21.95;61.91;97304.19;124840;1101;64504;-82
2021/05/13 08:28:13;;;;;;;36.80;32.93;;;;;;;21.86;61.89;97300.91;124865;1096;64424;-82
2021/05/13 08:30:41;;;;;;;33.60;30.13;;;;;;;22.22;62.33;97292.19;124837;1101;64415;-82
2021/05/13 08:33:08;;;;;;;34.50;30.90;;;;;;;22.82;61.73;97296.31;124844;1101;64329;-83
2021/05/13 08:35:35;;;;;;;34.37;30.87;;;;;;;23.40;61.70;97299.52;124875;1096;64454;-82
2021/05/13 08:38:03;;;;;;;34.90;31.50;;;;;;;23.90;60.01;97293.09;124847;1096;64412;-82
2021/05/13 08:40:30;;;;;;;32.73;29.33;;;;;;;24.23;59.25;97281.75;124808;1101;64330;-82
2021/05/13 08:42:58;;;;;;;34.83;31.17;;;;;;;24.44;58.35;97285.01;124834;1101;64323;-81
2021/05/13 08:45:26;;;;;;;34.80;31.15;;;;;;;24.42;56.83;97287.13;124816;1101;64255;-82
2021/05/13 08:47:55;;;;;;;35.67;32.10;;;;;;;24.39;56.64;97284.88;124827;1101;64306;-82
2021/05/13 08:50:24;;;;;;;33.67;30.40;;;;;;;24.34;56.16;97282.84;124790;1101;64592;-82
2021/05/13 08:52:52;;;;;;;37.37;33.43;;;;;;;24.13;56.43;97283.38;124826;1101;64460;-82
2021/05/13 08:55:19;;;;;;;33.95;30.50;;;;;;;24.10;55.86;97288.21;124836;1096;64272;-82
2021/05/13 08:57:46;;;;;;;33.13;29.93;;;;;;;24.00;55.16;97287.93;124817;1101;64352;-82
2021/05/13 09:00:15;;;;;;;35.30;31.73;;;;;;;23.54;54.19;97288.48;124849;1096;64377;-82
2021/05/13 09:02:52;;;;;;;33.00;29.40;;;;;;;23.02;54.84;97286.13;125007;1095;64306;-81
2021/05/13 09:05:22;;;;;;;32.37;29.07;;;;;;;22.79;56.43;97292.98;124912;1101;64275;-82
2021/05/13 09:07:51;;;;;;;;;;;;;;;22.81;56.35;97287.34;124885;1101;64243;-81
2021/05/13 09:10:18;;;;;;;31.63;28.53;;;;;;;22.73;56.53;97287.63;124928;1101;64330;-82
2021/05/13 09:12:51;;;;;;;32.00;28.67;;;;;;;22.74;56.54;97283.84;125327;1101;64421;-82
2021/05/13 09:15:24;;;;;;;31.43;28.17;;;;;;;22.82;55.92;97282.73;125405;1101;64556;-82
2021/05/13 09:17:58;;;;;;;34.67;31.00;;;;;;;22.80;55.87;97285.66;124959;1101;64335;-81
2021/05/13 09:20:37;;;;;;;35.00;31.10;;;;;;;22.70;56.01;97286.18;124855;1096;64333;-82
2021/05/13 09:23:28;;;;;;;34.23;30.63;;;;;;;22.72;56.59;97292.23;124825;1101;64341;-82
2021/05/13 09:26:08;;;;;;;37.67;32.17;;;;;;;22.70;55.94;97290.78;124885;1101;64677;-84
2021/05/13 09:28:37;;;;;;;33.83;30.33;;;;;;;22.67;55.39;97291.20;124830;1101;64262;-83
2021/05/13 09:31:04;;;;;;;33.57;30.10;;;;;;;22.64;55.79;97295.19;125000;1102;64317;-83
2021/05/13 09:33:38;;;;;;;32.00;28.27;;;;;;;22.78;55.52;97288.61;124922;1096;64722;-83
2021/05/13 09:36:25;;;;;;;30.33;27.17;;;;;;;22.96;55.49;97287.86;124808;1101;64324;-82
2021/05/13 09:38:53;;;;;;;31.17;27.93;;;;;;;23.16;55.46;97282.20;124951;1101;64518;-82
2021/05/13 09:41:27;;;;;;;30.27;27.07;;;;;;;23.27;55.71;97282.52;124802;1101;64498;-82
2021/05/13 09:43:54;;;;;;;29.97;26.77;;;;;;;23.49;55.49;97285.64;124835;1096;64299;-81
2021/05/13 09:50:33;;;;;;;26.10;23.63;;;;;;;24.09;54.72;97264.79;124840;1101;64319;-83
2021/05/13 09:53:03;;;;;;;26.33;23.60;;;;;;;24.71;54.50;97260.92;124737;1101;64278;-84
2021/05/13 09:55:34;;;;;;;27.73;25.00;;;;;;;25.33;53.72;97261.28;124991;1101;64323;-83
2021/05/13 09:58:11;;;;;;;27.10;24.60;;;;;;;25.78;52.14;97254.30;124852;1101;64300;-84
2021/05/13 10:00:39;;;;;;;26.50;24.00;;;;;;;26.08;51.36;97255.98;124938;1096;64319;-83
2021/05/13 10:03:24;;;;;;;26.73;24.03;;;;;;;26.07;51.12;97249.70;124955;1101;65464;-84
2021/05/13 10:05:54;;;;;;;27.30;24.70;;;;;;;26.01;51.12;97245.19;124767;1101;64395;-84
2021/05/13 10:08:21;;;;;;;;;;;;;;;26.10;51.19;97243.73;124870;1096;65963;-86
2021/05/13 10:10:48;;;;;;;27.10;24.37;;;;;;;25.85;50.43;97238.62;124823;1101;64297;-83
2021/05/13 10:13:19;;;;;;;25.87;23.53;;;;;;;25.33;50.08;97235.89;124880;1101;64329;-81
2021/05/13 10:15:48;;;;;;;25.63;23.23;;;;;;;24.71;51.10;97239.13;124830;1101;64347;-82
2021/05/13 10:18:21;;;;;;;26.90;24.40;;;;;;;24.37;51.18;97237.98;124803;1101;64341;-82
2021/05/13 10:21:05;;;;;;;27.47;24.67;;;;;;;24.04;51.97;97231.14;124839;1096;64454;-82
2021/05/13 10:23:35;;;;;;;26.40;23.83;;;;;;;23.85;52.13;97239.36;124809;1096;64323;-82
2021/05/13 10:26:03;;;;;;;26.07;23.57;;;;;;;24.01;53.11;97227.02;124821;1101;64323;-82
2021/05/13 10:28:33;;;;;;;26.13;23.47;;;;;;;24.27;53.20;97219.48;124781;1101;64773;-82
2021/05/13 10:31:06;;;;;;;25.45;22.85;;;;;;;24.51;53.35;97221.23;124874;1101;64331;-82
2021/05/13 10:34:03;;;;;;;25.70;23.03;;;;;;;24.42;52.72;97224.50;124931;1101;64482;-82
2021/05/13 10:36:30;;;;;;;24.93;22.43;;;;;;;24.44;52.61;97211.48;124784;1096;64349;-81
2021/05/13 10:39:15;;;;;;;25.80;23.00;;;;;;;24.41;52.63;97217.38;124829;1101;64243;-82
2021/05/13 10:41:44;;;;;;;26.93;23.40;;;;;;;24.36;52.85;97209.94;124843;1096;64358;-81
2021/05/13 10:44:11;;;;;;;26.17;23.10;;;;;;;24.37;52.91;97213.48;124835;1101;64343;-81
2021/05/13 10:46:50;;;;;;;25.13;22.70;;;;;;;24.46;52.82;97206.64;124856;1101;64395;-81
2021/05/13 10:49:36;;;;;;;;;;;;;;;24.21;52.67;97207.64;124825;1101;64338;-81
2021/05/13 10:52:33;;;;;;;25.37;22.87;;;;;;;23.99;52.42;97201.10;124843;1101;64342;-82
2021/05/13 10:55:06;;;;;;;25.70;23.00;;;;;;;23.89;52.73;97215.26;124900;1096;64300;-82
2021/05/13 10:57:53;;;;;;;25.30;22.50;;;;;;;23.78;53.01;97202.45;124829;1101;64467;-82
2021/05/13 11:00:21;;;;;;;27.53;24.67;;;;;;;23.64;52.51;97212.63;124813;1096;64326;-82
2021/05/13 11:02:50;;;;;;;27.65;22.95;;;;;;;23.55;52.74;97211.30;124947;1101;64351;-82
2021/05/13 11:05:30;;;;;;;25.17;22.47;;;;;;;23.48;52.32;97210.55;124980;1101;64298;-81
2021/05/13 11:08:07;;;;;;;25.50;22.95;;;;;;;23.44;53.08;97212.91;125032;1101;64339;-85
2021/05/13 11:10:52;;;;;;;23.57;21.07;;;;;;;23.71;52.83;97198.95;125393;1101;64218;-78
2021/05/13 11:13:19;;;;;;;24.93;22.53;;;;;;;23.96;52.91;97196.95;124761;1101;64406;-78
2021/05/13 11:15:49;;;;;;;22.67;20.40;;;;;;;24.11;52.45;97199.22;124734;1096;64367;-85
2021/05/13 11:18:24;;;;;;;25.03;22.57;;;;;;;24.10;51.83;97194.85;124969;1101;64354;-84
2021/05/13 11:20:56;;;;;;;24.07;21.70;;;;;;;24.10;51.29;97203.84;124714;1096;64390;-85
2021/05/13 11:23:25;;;;;;;25.17;22.30;;;;;;;24.36;51.43;97195.50;125036;1096;64336;-86
2021/05/13 11:25:53;;;;;;;24.40;21.90;;;;;;;24.60;51.12;97190.92;124890;1096;64275;-86
2021/05/13 11:28:22;;;;;;;25.33;22.17;;;;;;;24.67;51.15;97181.57;124898;1096;64211;-85
2021/05/13 11:30:51;;;;;;;24.63;21.77;;;;;;;24.79;51.19;97188.90;124910;1096;64465;-87
2021/05/13 11:33:20;;;;;;;25.95;23.35;;;;;;;24.78;50.61;97181.77;124919;1096;64329;-86
2021/05/13 11:35:48;;;;;;;24.00;21.60;;;;;;;24.78;50.80;97179.05;124925;1101;64334;-85
2021/05/13 11:38:25;;;;;;;24.97;22.30;;;;;;;24.83;51.01;97176.44;125008;1101;64497;-86
2021/05/13 11:40:53;;;;;;;24.53;22.23;;;;;;;24.90;50.49;97182.60;124893;1096;64249;-86
2021/05/13 11:43:24;;;;;;;26.63;23.80;;;;;;;24.86;51.03;97173.27;124969;1101;64365;-87
2021/05/13 11:46:04;;;;;;;26.00;23.30;;;;;;;24.72;50.53;97170.79;124740;1096;64249;-87
2021/05/13 11:48:40;;;;;;;25.27;22.63;;;;;;;24.65;50.90;97167.35;124946;1101;64390;-86